M/T Vemaoil Xi — 9HWD7 — position and weather

sailwx.info

Track history (hours):
 
Tides Stations Pressure Air Temp Water Temp Dewpoint Dewpoint depression Visibility Wind Speed Wind Dir Waves Ship positions

M/T Vemaoil Xi

Last reported at 2014-Jun-18 16:05 UTC. Time now 2014-Jul-11 10:14 UTC.
Position N 36°26' W 001°60'.
Warning: this ship's position is 22 days out of date.

Length 105 m; draft 5 m.

Type: Tanker. MMSI: 215631000.

Date/timePositionNaut miles runAvg speedWind from/ knotsBaromVisibWave heightAir tempDewpointWater temp
2014-Jun-18 16:05N 36°26' W 001°60'  
2014-Jun-16 10:31N 37°31' E 010°50'1211.6
2014-Jun-16 09:30N 37°28' E 011°04'1111.3
2014-Jun-16 08:29N 37°23' E 011°18'1211.9
2014-Jun-16 07:28N 37°19' E 011°32'5011.8
2014-Jun-16 03:14N 37°02' E 012°31'811.3
2014-Jun-16 02:33N 36°59' E 012°40'1111.4
2014-Jun-16 01:33N 36°55' E 012°53'1311.7
2014-Jun-16 00:29N 36°51' E 013°08'1111.0
2014-Jun-15 23:31N 36°47' E 013°20'1111.6
2014-Jun-15 22:33N 36°44' E 013°33'1212.0
2014-Jun-15 21:33N 36°39' E 013°47'1211.8
2014-Jun-15 20:33N 36°35' E 014°01'1211.6
2014-Jun-15 19:33N 36°32' E 014°15'1111.3
2014-Jun-15 18:33N 36°27' E 014°28'1110.9
2014-Jun-15 17:33N 36°23' E 014°41'1111.0
2014-Jun-15 16:33N 36°20' E 014°54'1410.7
2014-Jun-15 15:15N 36°20' E 015°11'41110.8
2014-Jun-14 01:09N 37°00' E 023°41'58 6.5
2014-Jun-13 16:18N 37°50' E 024°18'6912.1
2014-Jun-13 10:33N 38°47' E 025°08'6512.4
2014-Jun-13 05:18N 39°46' E 025°44'2212.5
2014-Jun-13 03:32N 40°01' E 026°05'160 4.1
2014-Jun-11 12:06N 40°43' E 029°28'  
Track history (hours):
 
Tides Stations Pressure Air Temp Water Temp Dewpoint Dewpoint depression Visibility Wind Speed Wind Dir Waves Ship positions

M/T Vemaoil Xi

Last reported at 2014-Jun-18 16:05 UTC. Time now 2014-Jul-11 10:14 UTC.
Position N 36°26' W 001°60'.
Warning: this ship's position is 22 days out of date.

Length 105 m; draft 5 m.

Type: Tanker. MMSI: 215631000.

Date/timePositionNaut miles runAvg speedWind from/ knotsBaromVisibWave heightAir tempDewpointWater temp
2014-Jun-18 16:05N 36°26' W 001°60'  
2014-Jun-16 10:31N 37°31' E 010°50'1211.6
2014-Jun-16 09:30N 37°28' E 011°04'1111.3
2014-Jun-16 08:29N 37°23' E 011°18'1211.9
2014-Jun-16 07:28N 37°19' E 011°32'5011.8
2014-Jun-16 03:14N 37°02' E 012°31'811.3
2014-Jun-16 02:33N 36°59' E 012°40'1111.4
2014-Jun-16 01:33N 36°55' E 012°53'1311.7
2014-Jun-16 00:29N 36°51' E 013°08'1111.0
2014-Jun-15 23:31N 36°47' E 013°20'1111.6
2014-Jun-15 22:33N 36°44' E 013°33'1212.0
2014-Jun-15 21:33N 36°39' E 013°47'1211.8
2014-Jun-15 20:33N 36°35' E 014°01'1211.6
2014-Jun-15 19:33N 36°32' E 014°15'1111.3
2014-Jun-15 18:33N 36°27' E 014°28'1110.9
2014-Jun-15 17:33N 36°23' E 014°41'1111.0
2014-Jun-15 16:33N 36°20' E 014°54'1410.7
2014-Jun-15 15:15N 36°20' E 015°11'41110.8
2014-Jun-14 01:09N 37°00' E 023°41'58 6.5
2014-Jun-13 16:18N 37°50' E 024°18'6912.1
2014-Jun-13 10:33N 38°47' E 025°08'6512.4
2014-Jun-13 05:18N 39°46' E 025°44'2212.5
2014-Jun-13 03:32N 40°01' E 026°05'160 4.1
2014-Jun-11 12:06N 40°43' E 029°28'  

Dump ship's entire track history